Terminal Aerodrome Forecast
Issued by NWS

Home | Current Version | Previous Version | Text Only | Print | Product List | Glossary On
Versions: 1 2 3 4 5 6 7 8 9 10 11 12 13 14 15 16 17 18 19
000
FTUS43 KJKL 012300
TAFSJS
TAF
KSJS 012327Z 0200/0224 21003KT P6SM SCT050
     FM021000 20003KT 4SM BR BKN250
     FM021300 22005KT P6SM SCT040 BKN250
     FM022000 25006G14KT P6SM VCTS BKN040CB=

USA.gov is the U.S. government's official web portal to all federal, state and local government web resources and services.